sensor_id;sensor_type;location;lat;lon;timestamp;temperature;humidity
9790;DHT22;4934;50.852;8.098;2023-03-21T00:01:55;6.70;99.90
9790;DHT22;4934;50.852;8.098;2023-03-21T00:04:25;6.70;99.90
9790;DHT22;4934;50.852;8.098;2023-03-21T00:06:52;6.70;99.90
9790;DHT22;4934;50.852;8.098;2023-03-21T00:09:17;6.70;99.90
9790;DHT22;4934;50.852;8.098;2023-03-21T00:11:43;6.70;99.90
9790;DHT22;4934;50.852;8.098;2023-03-21T00:14:09;6.80;99.90
9790;DHT22;4934;50.852;8.098;2023-03-21T00:16:39;6.70;99.90
9790;DHT22;4934;50.852;8.098;2023-03-21T00:19:05;6.70;99.90
9790;DHT22;4934;50.852;8.098;2023-03-21T00:21:31;6.70;99.90
9790;DHT22;4934;50.852;8.098;2023-03-21T00:23:59;6.70;99.90
9790;DHT22;4934;50.852;8.098;2023-03-21T00:26:25;6.60;99.90
9790;DHT22;4934;50.852;8.098;2023-03-21T00:28:51;6.60;99.90
9790;DHT22;4934;50.852;8.098;2023-03-21T00:31:17;6.70;99.90
9790;DHT22;4934;50.852;8.098;2023-03-21T00:33:43;6.70;99.90
9790;DHT22;4934;50.852;8.098;2023-03-21T00:36:10;6.70;99.90
9790;DHT22;4934;50.852;8.098;2023-03-21T00:38:36;6.70;99.90
9790;DHT22;4934;50.852;8.098;2023-03-21T00:41:07;6.70;99.90
9790;DHT22;4934;50.852;8.098;2023-03-21T00:43:33;6.70;99.90
9790;DHT22;4934;50.852;8.098;2023-03-21T00:45:59;6.70;99.90
9790;DHT22;4934;50.852;8.098;2023-03-21T00:48:25;6.70;99.90
9790;DHT22;4934;50.852;8.098;2023-03-21T00:50:53;6.80;99.90
9790;DHT22;4934;50.852;8.098;2023-03-21T00:53:19;6.70;99.90
9790;DHT22;4934;50.852;8.098;2023-03-21T00:55:45;6.70;99.90
9790;DHT22;4934;50.852;8.098;2023-03-21T00:58:11;6.70;99.90
9790;DHT22;4934;50.852;8.098;2023-03-21T01:00:37;6.70;99.90
9790;DHT22;4934;50.852;8.098;2023-03-21T01:03:04;6.80;99.90
9790;DHT22;4934;50.852;8.098;2023-03-21T01:05:52;6.70;99.90
9790;DHT22;4934;50.852;8.098;2023-03-21T01:08:35;6.70;99.90
9790;DHT22;4934;50.852;8.098;2023-03-21T01:11:07;6.70;99.90
9790;DHT22;4934;50.852;8.098;2023-03-21T01:13:33;6.70;99.90
9790;DHT22;4934;50.852;8.098;2023-03-21T01:15:59;6.70;99.90
9790;DHT22;4934;50.852;8.098;2023-03-21T01:18:27;6.70;99.90
9790;DHT22;4934;50.852;8.098;2023-03-21T01:20:55;6.70;99.90
9790;DHT22;4934;50.852;8.098;2023-03-21T01:23:21;6.70;99.90
9790;DHT22;4934;50.852;8.098;2023-03-21T01:25:49;6.70;99.90
9790;DHT22;4934;50.852;8.098;2023-03-21T01:28:15;6.70;99.90
9790;DHT22;4934;50.852;8.098;2023-03-21T01:30:46;6.60;99.90
9790;DHT22;4934;50.852;8.098;2023-03-21T01:33:12;6.60;99.90
9790;DHT22;4934;50.852;8.098;2023-03-21T01:35:38;6.70;99.90
9790;DHT22;4934;50.852;8.098;2023-03-21T01:38:04;6.70;99.90
9790;DHT22;4934;50.852;8.098;2023-03-21T01:40:30;6.60;99.90
9790;DHT22;4934;50.852;8.098;2023-03-21T01:42:55;6.70;99.90
9790;DHT22;4934;50.852;8.098;2023-03-21T01:48:26;6.60;99.90
9790;DHT22;4934;50.852;8.098;2023-03-21T01:50:53;6.70;99.90
9790;DHT22;4934;50.852;8.098;2023-03-21T01:53:22;6.60;99.90
9790;DHT22;4934;50.852;8.098;2023-03-21T01:55:53;6.70;99.90
9790;DHT22;4934;50.852;8.098;2023-03-21T01:58:18;6.70;99.90
9790;DHT22;4934;50.852;8.098;2023-03-21T02:00:46;6.70;99.90
9790;DHT22;4934;50.852;8.098;2023-03-21T02:03:14;6.70;99.90
9790;DHT22;4934;50.852;8.098;2023-03-21T02:08:15;6.70;99.90
9790;DHT22;4934;50.852;8.098;2023-03-21T02:10:43;6.80;99.90
9790;DHT22;4934;50.852;8.098;2023-03-21T02:13:10;6.80;99.90
9790;DHT22;4934;50.852;8.098;2023-03-21T02:15:42;6.80;99.90
9790;DHT22;4934;50.852;8.098;2023-03-21T02:24:15;6.60;99.90
9790;DHT22;4934;50.852;8.098;2023-03-21T02:27:11;6.60;99.90
9790;DHT22;4934;50.852;8.098;2023-03-21T02:32:30;6.70;99.90
9790;DHT22;4934;50.852;8.098;2023-03-21T02:38:14;6.70;99.90
9790;DHT22;4934;50.852;8.098;2023-03-21T02:40:51;6.70;99.90
9790;DHT22;4934;50.852;8.098;2023-03-21T02:46:11;6.70;99.90
9790;DHT22;4934;50.852;8.098;2023-03-21T02:48:58;6.70;99.90
9790;DHT22;4934;50.852;8.098;2023-03-21T02:51:26;6.70;99.90
9790;DHT22;4934;50.852;8.098;2023-03-21T02:54:01;6.60;99.90
9790;DHT22;4934;50.852;8.098;2023-03-21T02:56:28;6.60;99.90
9790;DHT22;4934;50.852;8.098;2023-03-21T02:58:55;6.70;99.90
9790;DHT22;4934;50.852;8.098;2023-03-21T03:01:21;6.70;99.90
9790;DHT22;4934;50.852;8.098;2023-03-21T03:03:50;6.70;99.90
9790;DHT22;4934;50.852;8.098;2023-03-21T03:06:22;6.70;99.90
9790;DHT22;4934;50.852;8.098;2023-03-21T03:11:27;6.70;99.90
9790;DHT22;4934;50.852;8.098;2023-03-21T03:13:57;6.70;99.90
9790;DHT22;4934;50.852;8.098;2023-03-21T03:16:48;6.70;99.90
9790;DHT22;4934;50.852;8.098;2023-03-21T03:19:29;6.70;99.90
9790;DHT22;4934;50.852;8.098;2023-03-21T03:24:34;6.60;99.90
9790;DHT22;4934;50.852;8.098;2023-03-21T03:27:12;6.60;99.90
9790;DHT22;4934;50.852;8.098;2023-03-21T03:29:41;6.80;99.90
9790;DHT22;4934;50.852;8.098;2023-03-21T03:32:25;6.80;99.90
9790;DHT22;4934;50.852;8.098;2023-03-21T03:34:55;6.60;99.90
9790;DHT22;4934;50.852;8.098;2023-03-21T03:37:28;6.70;99.90
9790;DHT22;4934;50.852;8.098;2023-03-21T03:40:04;6.70;99.90
9790;DHT22;4934;50.852;8.098;2023-03-21T03:42:36;6.70;99.90
9790;DHT22;4934;50.852;8.098;2023-03-21T03:45:04;6.70;99.90
9790;DHT22;4934;50.852;8.098;2023-03-21T03:47:36;6.70;99.90
9790;DHT22;4934;50.852;8.098;2023-03-21T03:53:22;6.70;99.90
9790;DHT22;4934;50.852;8.098;2023-03-21T03:55:50;6.70;99.90
9790;DHT22;4934;50.852;8.098;2023-03-21T03:58:18;6.70;99.90
9790;DHT22;4934;50.852;8.098;2023-03-21T04:00:45;6.60;99.90
9790;DHT22;4934;50.852;8.098;2023-03-21T04:03:10;6.70;99.90
9790;DHT22;4934;50.852;8.098;2023-03-21T04:05:37;6.80;99.90
9790;DHT22;4934;50.852;8.098;2023-03-21T04:08:02;6.80;99.90
9790;DHT22;4934;50.852;8.098;2023-03-21T04:10:28;6.80;99.90
9790;DHT22;4934;50.852;8.098;2023-03-21T04:12:53;6.70;99.90
9790;DHT22;4934;50.852;8.098;2023-03-21T04:15:19;6.60;99.90
9790;DHT22;4934;50.852;8.098;2023-03-21T04:17:45;6.60;99.90
9790;DHT22;4934;50.852;8.098;2023-03-21T04:20:12;6.60;99.90
9790;DHT22;4934;50.852;8.098;2023-03-21T04:22:38;6.60;99.90
9790;DHT22;4934;50.852;8.098;2023-03-21T04:25:04;6.60;99.90
9790;DHT22;4934;50.852;8.098;2023-03-21T04:27:30;6.50;99.90
9790;DHT22;4934;50.852;8.098;2023-03-21T04:29:58;6.40;99.90
9790;DHT22;4934;50.852;8.098;2023-03-21T04:32:24;6.40;99.90
9790;DHT22;4934;50.852;8.098;2023-03-21T04:34:50;6.40;99.90
9790;DHT22;4934;50.852;8.098;2023-03-21T04:37:20;6.30;99.90
9790;DHT22;4934;50.852;8.098;2023-03-21T04:39:48;6.30;99.90
9790;DHT22;4934;50.852;8.098;2023-03-21T04:42:16;6.30;99.90
9790;DHT22;4934;50.852;8.098;2023-03-21T04:44:46;6.30;99.90
9790;DHT22;4934;50.852;8.098;2023-03-21T04:47:13;6.30;99.90
9790;DHT22;4934;50.852;8.098;2023-03-21T04:49:41;6.30;99.90
9790;DHT22;4934;50.852;8.098;2023-03-21T04:52:06;6.40;99.90
9790;DHT22;4934;50.852;8.098;2023-03-21T04:54:32;6.40;99.90
9790;DHT22;4934;50.852;8.098;2023-03-21T04:56:58;6.30;99.90
9790;DHT22;4934;50.852;8.098;2023-03-21T04:59:24;6.30;99.90
9790;DHT22;4934;50.852;8.098;2023-03-21T05:01:51;6.20;99.90
9790;DHT22;4934;50.852;8.098;2023-03-21T05:04:16;6.20;99.90
9790;DHT22;4934;50.852;8.098;2023-03-21T05:06:43;6.20;99.90
9790;DHT22;4934;50.852;8.098;2023-03-21T05:09:09;6.30;99.90
9790;DHT22;4934;50.852;8.098;2023-03-21T05:11:36;6.30;99.90
9790;DHT22;4934;50.852;8.098;2023-03-21T05:14:03;6.30;99.90
9790;DHT22;4934;50.852;8.098;2023-03-21T05:16:29;6.20;99.90
9790;DHT22;4934;50.852;8.098;2023-03-21T05:18:56;6.30;99.90
9790;DHT22;4934;50.852;8.098;2023-03-21T05:21:23;6.20;99.90
9790;DHT22;4934;50.852;8.098;2023-03-21T05:23:49;6.20;99.90
9790;DHT22;4934;50.852;8.098;2023-03-21T05:26:20;6.40;99.90
9790;DHT22;4934;50.852;8.098;2023-03-21T05:28:46;6.40;99.90
9790;DHT22;4934;50.852;8.098;2023-03-21T05:31:13;6.20;99.90
9790;DHT22;4934;50.852;8.098;2023-03-21T05:33:44;6.20;99.90
9790;DHT22;4934;50.852;8.098;2023-03-21T05:36:11;6.20;99.90
9790;DHT22;4934;50.852;8.098;2023-03-21T05:38:37;6.10;99.90
9790;DHT22;4934;50.852;8.098;2023-03-21T05:41:04;6.10;99.90
9790;DHT22;4934;50.852;8.098;2023-03-21T05:43:29;6.10;99.90
9790;DHT22;4934;50.852;8.098;2023-03-21T05:45:55;6.10;99.90
9790;DHT22;4934;50.852;8.098;2023-03-21T05:48:21;6.20;99.90
9790;DHT22;4934;50.852;8.098;2023-03-21T05:50:46;6.10;99.90
9790;DHT22;4934;50.852;8.098;2023-03-21T05:53:12;6.20;99.90
9790;DHT22;4934;50.852;8.098;2023-03-21T05:55:38;6.30;99.90
9790;DHT22;4934;50.852;8.098;2023-03-21T05:58:03;6.40;99.90
9790;DHT22;4934;50.852;8.098;2023-03-21T06:00:29;6.40;99.90
9790;DHT22;4934;50.852;8.098;2023-03-21T06:02:55;6.50;99.90
9790;DHT22;4934;50.852;8.098;2023-03-21T06:05:22;6.60;99.90
9790;DHT22;4934;50.852;8.098;2023-03-21T06:07:48;6.60;99.90
9790;DHT22;4934;50.852;8.098;2023-03-21T06:10:14;6.70;99.90
9790;DHT22;4934;50.852;8.098;2023-03-21T06:12:39;6.70;99.90
9790;DHT22;4934;50.852;8.098;2023-03-21T06:15:07;6.80;99.90
9790;DHT22;4934;50.852;8.098;2023-03-21T06:17:33;6.80;99.90
9790;DHT22;4934;50.852;8.098;2023-03-21T06:19:59;6.80;99.90
9790;DHT22;4934;50.852;8.098;2023-03-21T06:22:30;6.90;99.90
9790;DHT22;4934;50.852;8.098;2023-03-21T06:24:55;7.00;99.90
9790;DHT22;4934;50.852;8.098;2023-03-21T06:27:21;7.00;99.90
9790;DHT22;4934;50.852;8.098;2023-03-21T06:29:47;7.00;99.90
9790;DHT22;4934;50.852;8.098;2023-03-21T06:32:13;7.10;99.90
9790;DHT22;4934;50.852;8.098;2023-03-21T06:34:38;7.20;99.90
9790;DHT22;4934;50.852;8.098;2023-03-21T06:37:04;7.30;99.90
9790;DHT22;4934;50.852;8.098;2023-03-21T06:39:30;7.40;99.90
9790;DHT22;4934;50.852;8.098;2023-03-21T06:41:57;7.40;99.90
9790;DHT22;4934;50.852;8.098;2023-03-21T06:44:23;7.50;99.90
9790;DHT22;4934;50.852;8.098;2023-03-21T06:46:50;7.50;99.90
9790;DHT22;4934;50.852;8.098;2023-03-21T06:49:16;7.70;99.90
9790;DHT22;4934;50.852;8.098;2023-03-21T06:51:41;7.80;99.90
9790;DHT22;4934;50.852;8.098;2023-03-21T06:54:07;7.90;99.90
9790;DHT22;4934;50.852;8.098;2023-03-21T06:56:33;7.90;99.90
9790;DHT22;4934;50.852;8.098;2023-03-21T06:58:59;7.90;99.90
9790;DHT22;4934;50.852;8.098;2023-03-21T07:01:24;8.10;99.90
9790;DHT22;4934;50.852;8.098;2023-03-21T07:03:54;8.10;99.90
9790;DHT22;4934;50.852;8.098;2023-03-21T07:06:22;8.20;99.90
9790;DHT22;4934;50.852;8.098;2023-03-21T07:08:51;8.40;99.90
9790;DHT22;4934;50.852;8.098;2023-03-21T07:11:16;8.50;99.90
9790;DHT22;4934;50.852;8.098;2023-03-21T07:13:42;8.60;99.90
9790;DHT22;4934;50.852;8.098;2023-03-21T07:16:08;8.60;99.90
9790;DHT22;4934;50.852;8.098;2023-03-21T07:18:34;8.70;99.90
9790;DHT22;4934;50.852;8.098;2023-03-21T07:21:00;8.80;99.90
9790;DHT22;4934;50.852;8.098;2023-03-21T07:23:26;8.70;99.90
9790;DHT22;4934;50.852;8.098;2023-03-21T07:25:52;8.80;99.90
9790;DHT22;4934;50.852;8.098;2023-03-21T07:28:19;9.00;99.90
9790;DHT22;4934;50.852;8.098;2023-03-21T07:30:51;9.00;99.90
9790;DHT22;4934;50.852;8.098;2023-03-21T07:33:17;9.20;99.90
9790;DHT22;4934;50.852;8.098;2023-03-21T07:35:42;9.30;99.90
9790;DHT22;4934;50.852;8.098;2023-03-21T07:38:08;9.50;99.90
9790;DHT22;4934;50.852;8.098;2023-03-21T07:40:33;9.60;99.90
9790;DHT22;4934;50.852;8.098;2023-03-21T07:42:59;9.80;99.90
9790;DHT22;4934;50.852;8.098;2023-03-21T07:45:25;10.00;99.90
9790;DHT22;4934;50.852;8.098;2023-03-21T07:47:52;10.00;99.90
9790;DHT22;4934;50.852;8.098;2023-03-21T07:50:18;10.00;99.90
9790;DHT22;4934;50.852;8.098;2023-03-21T07:52:44;10.10;99.90
9790;DHT22;4934;50.852;8.098;2023-03-21T07:55:10;10.10;99.90
9790;DHT22;4934;50.852;8.098;2023-03-21T07:57:35;10.20;99.90
9790;DHT22;4934;50.852;8.098;2023-03-21T08:00:03;10.20;99.90
9790;DHT22;4934;50.852;8.098;2023-03-21T08:02:29;10.30;99.90
9790;DHT22;4934;50.852;8.098;2023-03-21T08:04:54;10.40;99.90
9790;DHT22;4934;50.852;8.098;2023-03-21T08:07:20;10.40;99.90
9790;DHT22;4934;50.852;8.098;2023-03-21T08:09:46;10.50;99.90
9790;DHT22;4934;50.852;8.098;2023-03-21T08:12:12;10.50;99.90
9790;DHT22;4934;50.852;8.098;2023-03-21T08:14:37;10.60;99.90
9790;DHT22;4934;50.852;8.098;2023-03-21T08:17:03;10.60;99.90
9790;DHT22;4934;50.852;8.098;2023-03-21T08:19:29;10.60;99.90
9790;DHT22;4934;50.852;8.098;2023-03-21T08:21:55;10.60;99.90
9790;DHT22;4934;50.852;8.098;2023-03-21T08:24:24;10.60;99.90
9790;DHT22;4934;50.852;8.098;2023-03-21T08:26:50;10.60;99.90
9790;DHT22;4934;50.852;8.098;2023-03-21T08:29:16;10.60;99.90
9790;DHT22;4934;50.852;8.098;2023-03-21T08:31:42;10.60;99.90
9790;DHT22;4934;50.852;8.098;2023-03-21T08:34:07;10.60;99.90
9790;DHT22;4934;50.852;8.098;2023-03-21T08:36:35;10.60;99.90
9790;DHT22;4934;50.852;8.098;2023-03-21T08:39:03;10.60;99.90
9790;DHT22;4934;50.852;8.098;2023-03-21T08:41:33;10.60;99.90
9790;DHT22;4934;50.852;8.098;2023-03-21T08:43:59;10.50;99.90
9790;DHT22;4934;50.852;8.098;2023-03-21T08:46:24;10.60;99.90
9790;DHT22;4934;50.852;8.098;2023-03-21T08:48:51;10.70;99.90
9790;DHT22;4934;50.852;8.098;2023-03-21T08:51:17;10.70;99.90
9790;DHT22;4934;50.852;8.098;2023-03-21T08:53:42;10.70;99.90
9790;DHT22;4934;50.852;8.098;2023-03-21T08:56:09;10.70;99.90
9790;DHT22;4934;50.852;8.098;2023-03-21T08:58:35;10.60;99.90
9790;DHT22;4934;50.852;8.098;2023-03-21T09:01:01;10.60;99.90
9790;DHT22;4934;50.852;8.098;2023-03-21T09:03:27;10.60;99.90
9790;DHT22;4934;50.852;8.098;2023-03-21T09:05:55;10.70;99.90
9790;DHT22;4934;50.852;8.098;2023-03-21T09:08:21;10.60;99.90
9790;DHT22;4934;50.852;8.098;2023-03-21T09:10:48;10.60;99.90
9790;DHT22;4934;50.852;8.098;2023-03-21T09:13:14;10.60;99.90
9790;DHT22;4934;50.852;8.098;2023-03-21T09:15:40;10.50;99.90
9790;DHT22;4934;50.852;8.098;2023-03-21T09:18:05;10.60;99.90
9790;DHT22;4934;50.852;8.098;2023-03-21T09:20:38;10.60;99.90
9790;DHT22;4934;50.852;8.098;2023-03-21T09:23:04;10.70;99.90
9790;DHT22;4934;50.852;8.098;2023-03-21T09:25:30;10.80;99.90
9790;DHT22;4934;50.852;8.098;2023-03-21T09:27:57;10.90;99.90
9790;DHT22;4934;50.852;8.098;2023-03-21T09:30:23;11.00;99.90
9790;DHT22;4934;50.852;8.098;2023-03-21T09:32:49;11.00;99.90
9790;DHT22;4934;50.852;8.098;2023-03-21T09:35:17;11.10;99.90
9790;DHT22;4934;50.852;8.098;2023-03-21T09:37:44;11.10;99.90
9790;DHT22;4934;50.852;8.098;2023-03-21T09:46:09;10.90;99.90
9790;DHT22;4934;50.852;8.098;2023-03-21T09:49:01;10.90;99.90
9790;DHT22;4934;50.852;8.098;2023-03-21T09:51:39;10.90;99.90
9790;DHT22;4934;50.852;8.098;2023-03-21T09:54:18;10.90;99.90
9790;DHT22;4934;50.852;8.098;2023-03-21T09:56:45;10.90;99.90
9790;DHT22;4934;50.852;8.098;2023-03-21T09:59:24;10.90;99.90
9790;DHT22;4934;50.852;8.098;2023-03-21T10:01:51;10.70;99.90
9790;DHT22;4934;50.852;8.098;2023-03-21T10:04:19;10.70;99.90
9790;DHT22;4934;50.852;8.098;2023-03-21T10:07:08;10.70;99.90
9790;DHT22;4934;50.852;8.098;2023-03-21T10:09:35;10.80;99.90
9790;DHT22;4934;50.852;8.098;2023-03-21T10:12:06;10.80;99.90
9790;DHT22;4934;50.852;8.098;2023-03-21T10:14:40;10.80;99.90
9790;DHT22;4934;50.852;8.098;2023-03-21T10:17:28;10.90;99.90
9790;DHT22;4934;50.852;8.098;2023-03-21T10:20:14;10.90;99.90
9790;DHT22;4934;50.852;8.098;2023-03-21T10:22:41;11.00;99.90
9790;DHT22;4934;50.852;8.098;2023-03-21T10:25:12;11.00;99.90
9790;DHT22;4934;50.852;8.098;2023-03-21T10:27:39;11.00;99.90
9790;DHT22;4934;50.852;8.098;2023-03-21T10:30:05;11.00;99.90
9790;DHT22;4934;50.852;8.098;2023-03-21T10:32:32;11.10;99.90
9790;DHT22;4934;50.852;8.098;2023-03-21T10:34:59;11.10;99.90
9790;DHT22;4934;50.852;8.098;2023-03-21T10:37:25;11.20;99.90
9790;DHT22;4934;50.852;8.098;2023-03-21T10:39:53;11.30;99.90
9790;DHT22;4934;50.852;8.098;2023-03-21T10:42:25;11.30;99.90
9790;DHT22;4934;50.852;8.098;2023-03-21T10:44:55;11.30;99.90
9790;DHT22;4934;50.852;8.098;2023-03-21T10:47:24;11.40;99.90
9790;DHT22;4934;50.852;8.098;2023-03-21T10:49:50;11.30;99.90
9790;DHT22;4934;50.852;8.098;2023-03-21T10:52:21;11.40;99.90
9790;DHT22;4934;50.852;8.098;2023-03-21T10:54:48;11.50;99.90
9790;DHT22;4934;50.852;8.098;2023-03-21T10:57:22;11.50;99.90
9790;DHT22;4934;50.852;8.098;2023-03-21T10:59:57;11.40;99.90
9790;DHT22;4934;50.852;8.098;2023-03-21T11:02:32;11.50;99.90
9790;DHT22;4934;50.852;8.098;2023-03-21T11:05:35;11.40;99.90
9790;DHT22;4934;50.852;8.098;2023-03-21T11:08:13;11.30;99.90
9790;DHT22;4934;50.852;8.098;2023-03-21T11:13:33;11.20;99.90
9790;DHT22;4934;50.852;8.098;2023-03-21T11:16:10;11.20;99.90
9790;DHT22;4934;50.852;8.098;2023-03-21T11:18:48;11.20;99.90
9790;DHT22;4934;50.852;8.098;2023-03-21T11:21:14;11.20;99.90
9790;DHT22;4934;50.852;8.098;2023-03-21T11:23:45;11.20;99.90
9790;DHT22;4934;50.852;8.098;2023-03-21T11:26:30;10.90;99.90
9790;DHT22;4934;50.852;8.098;2023-03-21T11:28:57;10.90;99.90
9790;DHT22;4934;50.852;8.098;2023-03-21T11:31:39;11.00;99.90
9790;DHT22;4934;50.852;8.098;2023-03-21T11:34:08;11.00;99.90
9790;DHT22;4934;50.852;8.098;2023-03-21T11:36:36;11.10;99.90
9790;DHT22;4934;50.852;8.098;2023-03-21T11:39:20;11.20;99.90
9790;DHT22;4934;50.852;8.098;2023-03-21T11:41:47;11.30;99.90
9790;DHT22;4934;50.852;8.098;2023-03-21T11:44:31;11.20;99.90
9790;DHT22;4934;50.852;8.098;2023-03-21T11:46:57;11.30;99.90
9790;DHT22;4934;50.852;8.098;2023-03-21T11:49:23;11.40;99.90
9790;DHT22;4934;50.852;8.098;2023-03-21T11:57:18;11.20;99.90
9790;DHT22;4934;50.852;8.098;2023-03-21T12:03:13;11.10;99.90
9790;DHT22;4934;50.852;8.098;2023-03-21T12:05:55;11.30;99.90
9790;DHT22;4934;50.852;8.098;2023-03-21T12:08:44;11.30;99.90
9790;DHT22;4934;50.852;8.098;2023-03-21T12:11:19;11.30;99.90
9790;DHT22;4934;50.852;8.098;2023-03-21T12:13:59;11.30;99.90
9790;DHT22;4934;50.852;8.098;2023-03-21T12:16:38;11.40;99.90
9790;DHT22;4934;50.852;8.098;2023-03-21T12:22:10;11.10;99.90
9790;DHT22;4934;50.852;8.098;2023-03-21T12:30:26;10.90;99.90
9790;DHT22;4934;50.852;8.098;2023-03-21T12:35:57;10.90;99.90
9790;DHT22;4934;50.852;8.098;2023-03-21T12:41:32;11.10;99.90
9790;DHT22;4934;50.852;8.098;2023-03-21T12:44:04;11.20;99.90
9790;DHT22;4934;50.852;8.098;2023-03-21T12:52:12;11.30;99.90
9790;DHT22;4934;50.852;8.098;2023-03-21T12:54:43;11.30;99.90
9790;DHT22;4934;50.852;8.098;2023-03-21T12:57:25;11.20;99.90
9790;DHT22;4934;50.852;8.098;2023-03-21T13:00:19;11.20;99.90
9790;DHT22;4934;50.852;8.098;2023-03-21T13:02:54;11.30;99.90
9790;DHT22;4934;50.852;8.098;2023-03-21T13:07:53;11.20;99.90
9790;DHT22;4934;50.852;8.098;2023-03-21T13:10:20;11.10;99.90
9790;DHT22;4934;50.852;8.098;2023-03-21T13:15:44;11.00;99.90
9790;DHT22;4934;50.852;8.098;2023-03-21T13:20:59;11.20;99.90
9790;DHT22;4934;50.852;8.098;2023-03-21T13:23:36;11.30;99.90
9790;DHT22;4934;50.852;8.098;2023-03-21T13:26:02;11.20;99.90
9790;DHT22;4934;50.852;8.098;2023-03-21T13:28:30;11.30;99.90
9790;DHT22;4934;50.852;8.098;2023-03-21T13:31:18;11.20;99.90
9790;DHT22;4934;50.852;8.098;2023-03-21T13:33:52;11.00;99.90
9790;DHT22;4934;50.852;8.098;2023-03-21T13:36:24;10.90;99.90
9790;DHT22;4934;50.852;8.098;2023-03-21T13:38:52;10.90;99.90
9790;DHT22;4934;50.852;8.098;2023-03-21T13:41:26;10.90;99.90
9790;DHT22;4934;50.852;8.098;2023-03-21T13:51:52;10.90;99.90
9790;DHT22;4934;50.852;8.098;2023-03-21T13:54:22;10.90;99.90
9790;DHT22;4934;50.852;8.098;2023-03-21T13:56:55;10.80;99.90
9790;DHT22;4934;50.852;8.098;2023-03-21T13:59:40;10.80;99.90
9790;DHT22;4934;50.852;8.098;2023-03-21T14:02:28;10.60;99.90
9790;DHT22;4934;50.852;8.098;2023-03-21T14:05:13;10.70;99.90
9790;DHT22;4934;50.852;8.098;2023-03-21T14:07:43;10.70;99.90
9790;DHT22;4934;50.852;8.098;2023-03-21T14:10:34;10.60;99.90
9790;DHT22;4934;50.852;8.098;2023-03-21T14:13:04;10.80;99.90
9790;DHT22;4934;50.852;8.098;2023-03-21T14:15:42;10.70;99.90
9790;DHT22;4934;50.852;8.098;2023-03-21T14:18:18;10.70;99.90
9790;DHT22;4934;50.852;8.098;2023-03-21T14:20:44;10.60;99.90
9790;DHT22;4934;50.852;8.098;2023-03-21T14:23:15;10.50;99.90
9790;DHT22;4934;50.852;8.098;2023-03-21T14:25:42;10.60;99.90
9790;DHT22;4934;50.852;8.098;2023-03-21T14:28:25;10.70;99.90
9790;DHT22;4934;50.852;8.098;2023-03-21T14:30:58;10.70;99.90
9790;DHT22;4934;50.852;8.098;2023-03-21T14:33:34;10.80;99.90
9790;DHT22;4934;50.852;8.098;2023-03-21T14:36:06;10.90;99.90
9790;DHT22;4934;50.852;8.098;2023-03-21T14:38:36;11.00;99.90
9790;DHT22;4934;50.852;8.098;2023-03-21T14:41:03;10.90;99.90
9790;DHT22;4934;50.852;8.098;2023-03-21T14:43:29;10.90;99.90
9790;DHT22;4934;50.852;8.098;2023-03-21T14:45:59;10.80;99.90
9790;DHT22;4934;50.852;8.098;2023-03-21T14:48:33;10.80;99.90
9790;DHT22;4934;50.852;8.098;2023-03-21T14:51:06;10.70;99.90
9790;DHT22;4934;50.852;8.098;2023-03-21T14:53:42;10.80;99.90
9790;DHT22;4934;50.852;8.098;2023-03-21T14:56:22;10.80;99.90
9790;DHT22;4934;50.852;8.098;2023-03-21T14:58:51;10.70;99.90
9790;DHT22;4934;50.852;8.098;2023-03-21T15:01:27;10.70;99.90
9790;DHT22;4934;50.852;8.098;2023-03-21T15:03:54;10.70;99.90
9790;DHT22;4934;50.852;8.098;2023-03-21T15:06:19;10.60;99.90
9790;DHT22;4934;50.852;8.098;2023-03-21T15:09:03;10.60;99.90
9790;DHT22;4934;50.852;8.098;2023-03-21T15:11:34;10.60;99.90
9790;DHT22;4934;50.852;8.098;2023-03-21T15:14:02;10.70;99.90
9790;DHT22;4934;50.852;8.098;2023-03-21T15:16:30;10.70;99.90
9790;DHT22;4934;50.852;8.098;2023-03-21T15:18:56;10.70;99.90
9790;DHT22;4934;50.852;8.098;2023-03-21T15:21:26;10.60;99.90
9790;DHT22;4934;50.852;8.098;2023-03-21T15:24:06;10.70;99.90
9790;DHT22;4934;50.852;8.098;2023-03-21T15:26:38;10.80;99.90
9790;DHT22;4934;50.852;8.098;2023-03-21T15:29:05;10.90;99.90
9790;DHT22;4934;50.852;8.098;2023-03-21T15:31:38;10.90;99.90
9790;DHT22;4934;50.852;8.098;2023-03-21T15:34:04;11.00;99.90
9790;DHT22;4934;50.852;8.098;2023-03-21T15:36:40;10.90;99.90
9790;DHT22;4934;50.852;8.098;2023-03-21T15:39:37;11.00;99.90
9790;DHT22;4934;50.852;8.098;2023-03-21T15:42:28;11.00;99.90
9790;DHT22;4934;50.852;8.098;2023-03-21T15:44:56;11.10;99.90
9790;DHT22;4934;50.852;8.098;2023-03-21T15:47:48;11.10;99.90
9790;DHT22;4934;50.852;8.098;2023-03-21T15:50:36;11.00;99.90
9790;DHT22;4934;50.852;8.098;2023-03-21T15:53:12;10.90;99.90
9790;DHT22;4934;50.852;8.098;2023-03-21T15:55:48;11.00;99.90
9790;DHT22;4934;50.852;8.098;2023-03-21T15:58:31;10.90;99.90
9790;DHT22;4934;50.852;8.098;2023-03-21T16:01:03;11.00;99.90
9790;DHT22;4934;50.852;8.098;2023-03-21T16:03:31;11.00;99.90
9790;DHT22;4934;50.852;8.098;2023-03-21T16:13:42;11.00;99.90
9790;DHT22;4934;50.852;8.098;2023-03-21T16:16:18;11.10;99.90
9790;DHT22;4934;50.852;8.098;2023-03-21T16:18:45;11.10;99.90
9790;DHT22;4934;50.852;8.098;2023-03-21T16:21:15;11.00;99.90
9790;DHT22;4934;50.852;8.098;2023-03-21T16:23:41;11.00;99.90
9790;DHT22;4934;50.852;8.098;2023-03-21T16:26:12;11.10;99.90
9790;DHT22;4934;50.852;8.098;2023-03-21T16:28:38;11.10;99.90
9790;DHT22;4934;50.852;8.098;2023-03-21T16:31:04;11.20;99.90
9790;DHT22;4934;50.852;8.098;2023-03-21T16:33:30;11.20;99.90
9790;DHT22;4934;50.852;8.098;2023-03-21T16:35:55;11.10;99.90
9790;DHT22;4934;50.852;8.098;2023-03-21T16:38:22;11.20;99.90
9790;DHT22;4934;50.852;8.098;2023-03-21T16:40:48;11.30;99.90
9790;DHT22;4934;50.852;8.098;2023-03-21T16:43:16;11.30;99.90
9790;DHT22;4934;50.852;8.098;2023-03-21T16:45:42;11.20;99.90
9790;DHT22;4934;50.852;8.098;2023-03-21T16:48:09;11.20;99.90
9790;DHT22;4934;50.852;8.098;2023-03-21T16:50:41;11.00;99.90
9790;DHT22;4934;50.852;8.098;2023-03-21T16:53:07;10.90;99.90
9790;DHT22;4934;50.852;8.098;2023-03-21T16:55:34;11.00;99.90
9790;DHT22;4934;50.852;8.098;2023-03-21T16:58:01;10.90;99.90
9790;DHT22;4934;50.852;8.098;2023-03-21T17:00:28;10.90;99.90
9790;DHT22;4934;50.852;8.098;2023-03-21T17:02:58;10.90;99.90
9790;DHT22;4934;50.852;8.098;2023-03-21T17:05:25;10.80;99.90
9790;DHT22;4934;50.852;8.098;2023-03-21T17:07:53;11.00;99.90
9790;DHT22;4934;50.852;8.098;2023-03-21T17:12:46;11.00;99.90
9790;DHT22;4934;50.852;8.098;2023-03-21T17:15:13;11.00;99.90
9790;DHT22;4934;50.852;8.098;2023-03-21T17:17:39;11.10;99.90
9790;DHT22;4934;50.852;8.098;2023-03-21T17:20:19;10.90;99.90
9790;DHT22;4934;50.852;8.098;2023-03-21T17:22:45;10.90;99.90
9790;DHT22;4934;50.852;8.098;2023-03-21T17:25:11;10.80;99.90
9790;DHT22;4934;50.852;8.098;2023-03-21T17:27:37;10.80;99.90
9790;DHT22;4934;50.852;8.098;2023-03-21T17:30:06;10.70;99.90
9790;DHT22;4934;50.852;8.098;2023-03-21T17:32:36;10.60;99.90
9790;DHT22;4934;50.852;8.098;2023-03-21T17:35:01;10.50;99.90
9790;DHT22;4934;50.852;8.098;2023-03-21T17:37:27;10.40;99.90
9790;DHT22;4934;50.852;8.098;2023-03-21T17:39:52;10.30;99.90
9790;DHT22;4934;50.852;8.098;2023-03-21T17:42:19;10.20;99.90
9790;DHT22;4934;50.852;8.098;2023-03-21T17:44:45;10.00;99.90
9790;DHT22;4934;50.852;8.098;2023-03-21T17:47:11;9.80;99.90
9790;DHT22;4934;50.852;8.098;2023-03-21T17:49:37;9.80;99.90
9790;DHT22;4934;50.852;8.098;2023-03-21T17:52:03;9.70;99.90
9790;DHT22;4934;50.852;8.098;2023-03-21T17:54:28;9.60;99.90
9790;DHT22;4934;50.852;8.098;2023-03-21T17:56:54;9.50;99.90
9790;DHT22;4934;50.852;8.098;2023-03-21T17:59:21;9.30;99.90